createdAt,value
2022-12-23T00:02:11.758Z,5.72
2022-12-23T00:04:54.639Z,5.71
2022-12-23T00:07:37.484Z,5.73
2022-12-23T00:10:20.277Z,5.73
2022-12-23T00:13:22.184Z,5.72
2022-12-23T00:16:06.674Z,5.67
2022-12-23T00:18:49.655Z,5.65
2022-12-23T00:21:32.484Z,5.57
2022-12-23T00:24:15.269Z,5.56
2022-12-23T00:26:58.108Z,5.55
2022-12-23T00:29:42.257Z,5.54
2022-12-23T00:32:25.033Z,5.53
2022-12-23T00:35:08.312Z,5.54
2022-12-23T00:37:51.113Z,5.54
2022-12-23T00:40:51.495Z,5.54
2022-12-23T00:43:34.296Z,5.53
2022-12-23T00:46:18.657Z,5.56
2022-12-23T00:49:19.463Z,5.59
2022-12-23T00:52:02.723Z,5.63
2022-12-23T00:54:45.583Z,5.63
2022-12-23T00:57:28.392Z,5.65
2022-12-23T01:00:12.261Z,5.69
2022-12-23T01:03:14.086Z,5.69
2022-12-23T01:05:59.235Z,5.71
2022-12-23T01:08:42.082Z,5.75
2022-12-23T01:11:24.894Z,5.77
2022-12-23T01:14:09.374Z,5.79
2022-12-23T01:16:52.201Z,5.81
2022-12-23T01:19:36.860Z,5.81
2022-12-23T01:22:19.599Z,5.80
2022-12-23T01:25:02.798Z,5.82
2022-12-23T01:27:45.584Z,5.82
2022-12-23T01:30:28.373Z,5.83
2022-12-23T01:33:11.157Z,5.84
2022-12-23T01:36:01.093Z,5.85
2022-12-23T01:38:44.084Z,5.87
2022-12-23T01:41:46.431Z,5.89
2022-12-23T01:44:52.524Z,5.90
2022-12-23T01:47:39.891Z,5.94
2022-12-23T01:50:26.845Z,5.95
2022-12-23T01:53:14.585Z,5.95
2022-12-23T01:56:01.646Z,5.95
2022-12-23T01:58:48.955Z,5.93
2022-12-23T02:01:49.828Z,5.85
2022-12-23T02:04:32.686Z,5.86
2022-12-23T02:07:33.097Z,5.84
2022-12-23T02:10:17.767Z,5.84
2022-12-23T02:13:02.044Z,5.76
2022-12-23T02:16:09.965Z,5.70
2022-12-23T02:19:11.025Z,5.67
2022-12-23T02:22:08.017Z,5.65
2022-12-23T02:25:31.022Z,5.69
2022-12-23T02:28:42.534Z,5.72
2022-12-23T02:31:35.384Z,5.70
2022-12-23T02:34:21.405Z,5.73
2022-12-23T02:37:09.386Z,5.71
2022-12-23T02:39:57.224Z,5.72
2022-12-23T02:42:47.270Z,5.73
2022-12-23T02:45:37.148Z,5.73
2022-12-23T02:48:30.787Z,5.75
2022-12-23T02:51:16.552Z,5.76
2022-12-23T02:54:04.008Z,5.73
2022-12-23T02:56:51.025Z,5.74
2022-12-23T02:59:38.886Z,5.70
2022-12-23T03:02:21.878Z,5.70
2022-12-23T03:05:07.081Z,5.67
2022-12-23T03:07:49.922Z,5.71
2022-12-23T03:10:43.854Z,5.73
2022-12-23T03:13:36.313Z,5.77
2022-12-23T03:16:24.844Z,5.78
2022-12-23T03:19:15.564Z,5.81
2022-12-23T03:22:08.091Z,5.82
2022-12-23T03:24:56.679Z,5.84
2022-12-23T03:27:43.808Z,5.85
2022-12-23T03:30:27.042Z,5.86
2022-12-23T03:33:14.529Z,5.88
2022-12-23T03:36:01.454Z,5.90
2022-12-23T03:38:46.375Z,5.92
2022-12-23T03:41:32.564Z,5.93
2022-12-23T03:44:20.581Z,5.93
2022-12-23T03:47:08.137Z,5.95
2022-12-23T03:49:54.880Z,5.97
2022-12-23T03:52:42.319Z,6.01
2022-12-23T03:55:35.394Z,6.01
2022-12-23T03:58:38.232Z,6.04
2022-12-23T04:01:32.592Z,6.02
2022-12-23T04:04:21.889Z,6.00
2022-12-23T04:07:11.302Z,5.96
2022-12-23T04:09:54.906Z,5.95
2022-12-23T04:12:40.345Z,5.95
2022-12-23T04:15:24.660Z,5.91
2022-12-23T04:18:07.612Z,5.92
2022-12-23T04:20:50.460Z,5.93
2022-12-23T04:23:33.203Z,5.90
2022-12-23T04:26:15.997Z,5.92
2022-12-23T04:29:00.254Z,5.90
2022-12-23T04:31:43.126Z,5.90
2022-12-23T04:34:25.971Z,5.85
2022-12-23T04:37:08.770Z,5.91
2022-12-23T04:39:51.544Z,5.91
2022-12-23T04:42:34.375Z,5.92
2022-12-23T04:45:18.536Z,5.89
2022-12-23T04:48:01.357Z,5.89
2022-12-23T04:50:44.157Z,5.90
2022-12-23T04:53:26.934Z,5.89
2022-12-23T04:56:09.745Z,5.89
2022-12-23T04:58:53.546Z,5.85
2022-12-23T05:01:37.760Z,5.85
2022-12-23T05:04:20.692Z,5.84
2022-12-23T05:07:03.624Z,5.84
2022-12-23T05:09:46.397Z,5.78
2022-12-23T05:12:30.044Z,5.73
2022-12-23T05:15:12.779Z,5.78
2022-12-23T05:17:56.927Z,5.80
2022-12-23T05:20:39.739Z,5.78
2022-12-23T05:23:22.533Z,5.81
2022-12-23T05:26:05.690Z,5.77
2022-12-23T05:28:48.596Z,5.81
2022-12-23T05:31:31.455Z,5.80
2022-12-23T05:34:15.690Z,5.78
2022-12-23T05:36:58.457Z,5.78
2022-12-23T05:39:41.246Z,5.76
2022-12-23T05:42:24.185Z,5.76
2022-12-23T05:45:07.989Z,5.77
2022-12-23T05:47:50.792Z,5.76
2022-12-23T05:50:35.153Z,5.78
2022-12-23T05:53:18.117Z,5.76
2022-12-23T05:56:05.001Z,5.75
2022-12-23T05:58:47.821Z,5.73
2022-12-23T06:01:30.635Z,5.72
2022-12-23T06:04:13.546Z,5.73
2022-12-23T06:06:58.225Z,5.73
2022-12-23T06:09:40.825Z,5.72
2022-12-23T06:12:23.688Z,5.72
2022-12-23T06:15:08.005Z,5.71
2022-12-23T06:17:50.784Z,5.71
2022-12-23T06:20:33.586Z,5.69
2022-12-23T06:23:17.799Z,5.67
2022-12-23T06:26:01.399Z,5.67
2022-12-23T06:28:44.249Z,5.69
2022-12-23T06:31:27.047Z,5.70
2022-12-23T06:34:09.857Z,5.71
2022-12-23T06:36:52.611Z,5.71
2022-12-23T06:39:37.111Z,5.73
2022-12-23T06:42:19.901Z,5.75
2022-12-23T06:45:02.771Z,5.78
2022-12-23T06:47:45.586Z,5.78
2022-12-23T06:50:28.352Z,5.75
2022-12-23T06:53:11.376Z,5.74
2022-12-23T06:56:01.749Z,5.73
2022-12-23T06:58:44.535Z,5.69
2022-12-23T07:01:27.600Z,5.67
2022-12-23T07:04:10.617Z,5.66
2022-12-23T07:06:53.584Z,5.64
2022-12-23T07:09:36.377Z,5.65
2022-12-23T07:12:20.524Z,5.66
2022-12-23T07:15:03.349Z,5.67
2022-12-23T07:17:46.173Z,5.67
2022-12-23T07:20:29.019Z,5.67
2022-12-23T07:23:11.900Z,5.67
2022-12-23T07:25:55.757Z,5.67
2022-12-23T07:28:39.961Z,5.67
2022-12-23T07:31:22.796Z,5.65
2022-12-23T07:34:05.657Z,5.69
2022-12-23T07:36:48.472Z,5.73
2022-12-23T07:39:31.297Z,5.76
2022-12-23T07:42:43.634Z,5.80
2022-12-23T07:45:18.275Z,5.83
2022-12-23T07:48:02.184Z,5.85
2022-12-23T07:50:44.995Z,5.89
2022-12-23T07:53:27.803Z,5.90
2022-12-23T07:56:10.605Z,5.92
2022-12-23T07:58:55.010Z,5.92
2022-12-23T08:01:39.310Z,5.92
2022-12-23T08:04:22.320Z,5.94
2022-12-23T08:07:05.168Z,5.95
2022-12-23T08:09:47.968Z,5.95
2022-12-23T08:12:30.799Z,5.96
2022-12-23T08:15:13.623Z,5.96
2022-12-23T08:17:57.801Z,5.97
2022-12-23T08:20:40.597Z,5.99
2022-12-23T08:23:25.049Z,6.02
2022-12-23T08:26:10.598Z,6.04
2022-12-23T08:28:53.947Z,6.06
2022-12-23T08:31:36.953Z,6.08
2022-12-23T08:34:21.302Z,6.08
2022-12-23T08:37:04.278Z,6.11
2022-12-23T08:39:47.195Z,6.14
2022-12-23T08:42:29.993Z,6.15
2022-12-23T08:45:13.407Z,6.19
2022-12-23T08:47:56.211Z,6.22
2022-12-23T08:50:41.583Z,6.25
2022-12-23T08:53:24.393Z,6.26
2022-12-23T08:56:09.178Z,6.28
2022-12-23T08:58:53.898Z,6.29
2022-12-23T09:01:36.805Z,6.31
2022-12-23T09:04:19.711Z,6.33
2022-12-23T09:07:03.859Z,6.37
2022-12-23T09:09:47.236Z,6.39
2022-12-23T09:12:30.044Z,6.41
2022-12-23T09:15:13.308Z,6.42
2022-12-23T09:17:56.133Z,6.42
2022-12-23T09:20:39.650Z,6.43
2022-12-23T09:23:23.794Z,6.44
2022-12-23T09:26:07.228Z,6.46
2022-12-23T09:28:50.047Z,6.52
2022-12-23T09:31:37.433Z,6.59
2022-12-23T09:34:20.709Z,6.65
2022-12-23T09:37:03.751Z,6.68
2022-12-23T09:39:47.915Z,6.75
2022-12-23T09:42:47.199Z,6.84
2022-12-23T09:45:52.393Z,6.92
2022-12-23T09:48:39.434Z,7.05
2022-12-23T09:51:24.526Z,7.11
2022-12-23T09:54:17.188Z,7.19
2022-12-23T09:57:06.672Z,7.24
2022-12-23T10:00:02.976Z,7.24
2022-12-23T10:03:05.756Z,7.28
2022-12-23T10:06:03.443Z,7.32
2022-12-23T10:08:50.488Z,7.37
2022-12-23T10:11:37.972Z,7.42
2022-12-23T10:14:26.864Z,7.47
2022-12-23T10:17:15.755Z,7.51
2022-12-23T10:20:02.996Z,7.55
2022-12-23T10:22:47.433Z,7.59
2022-12-23T10:25:36.296Z,7.64
2022-12-23T10:28:19.714Z,7.67
2022-12-23T10:34:18.646Z,7.69
2022-12-23T10:37:07.327Z,7.72
2022-12-23T10:39:58.677Z,7.69
2022-12-23T10:42:49.304Z,7.68
2022-12-23T10:45:42.532Z,7.68
2022-12-23T10:48:48.604Z,7.67
2022-12-23T10:51:35.691Z,7.69
2022-12-23T10:54:24.384Z,7.71
2022-12-23T10:57:08.112Z,7.73
2022-12-23T10:59:50.928Z,7.75
2022-12-23T11:02:48.389Z,7.78
2022-12-23T11:05:35.217Z,7.82
2022-12-23T11:08:19.469Z,7.86
2022-12-23T11:11:02.386Z,7.87
2022-12-23T11:13:46.944Z,7.92
2022-12-23T11:16:30.034Z,7.95
2022-12-23T11:19:16.703Z,7.97
2022-12-23T11:22:02.532Z,7.98
2022-12-23T11:24:45.330Z,7.99
2022-12-23T11:27:28.213Z,7.98
2022-12-23T11:30:18.872Z,7.99
2022-12-23T11:33:01.851Z,8.01
2022-12-23T11:35:45.418Z,8.01
2022-12-23T11:38:29.915Z,8.02
2022-12-23T11:41:20.976Z,8.01
2022-12-23T11:44:07.510Z,8.02
2022-12-23T11:46:50.733Z,8.00
2022-12-23T11:49:33.545Z,7.99
2022-12-23T11:52:21.031Z,7.98
2022-12-23T11:55:07.010Z,7.99
2022-12-23T11:57:50.770Z,7.98
2022-12-23T12:00:40.197Z,7.96
2022-12-23T12:03:26.817Z,7.98
2022-12-23T12:06:16.212Z,7.98
2022-12-23T12:09:00.984Z,7.97
2022-12-23T12:11:50.115Z,7.99
2022-12-23T12:14:37.185Z,7.98
2022-12-23T12:17:25.475Z,7.99
2022-12-23T12:20:15.469Z,8.02
2022-12-23T12:23:03.405Z,8.05
2022-12-23T12:25:51.619Z,8.07
2022-12-23T12:28:40.012Z,8.09
2022-12-23T12:31:27.736Z,8.11
2022-12-23T12:34:26.646Z,8.11
2022-12-23T12:37:21.300Z,8.11
2022-12-23T12:40:15.032Z,8.11
2022-12-23T12:43:02.792Z,8.12
2022-12-23T12:45:53.006Z,8.12
2022-12-23T12:48:46.001Z,8.15
2022-12-23T12:51:34.947Z,8.15
2022-12-23T12:54:26.273Z,8.17
2022-12-23T12:57:16.046Z,8.17
2022-12-23T13:00:05.900Z,8.17
2022-12-23T13:03:18.784Z,8.16
2022-12-23T13:06:13.086Z,8.16
2022-12-23T13:09:03.967Z,8.16
2022-12-23T13:11:55.952Z,8.18
2022-12-23T13:14:51.909Z,8.17
2022-12-23T13:17:40.700Z,8.18
2022-12-23T13:20:32.385Z,8.17
2022-12-23T13:23:42.876Z,8.17
2022-12-23T13:26:33.719Z,8.17
2022-12-23T13:29:43.518Z,8.16
2022-12-23T13:32:38.439Z,8.16
2022-12-23T13:35:35.588Z,8.17
2022-12-23T13:38:38.049Z,8.18
2022-12-23T13:41:26.879Z,8.18
2022-12-23T13:44:13.003Z,8.19
2022-12-23T13:47:01.768Z,8.19
2022-12-23T13:49:59.416Z,8.18
2022-12-23T13:53:02.817Z,8.18
2022-12-23T13:56:00.454Z,8.20
2022-12-23T13:58:47.676Z,8.20
2022-12-23T14:01:36.203Z,8.20
2022-12-23T14:04:58.356Z,8.20
2022-12-23T14:07:45.783Z,8.20
2022-12-23T14:10:30.376Z,8.21
2022-12-23T14:13:18.816Z,8.21
2022-12-23T14:16:17.308Z,8.23
2022-12-23T14:19:20.607Z,8.22
2022-12-23T14:22:14.620Z,8.22
2022-12-23T14:25:19.011Z,8.20
2022-12-23T14:28:14.372Z,8.20
2022-12-23T14:30:57.559Z,8.18
2022-12-23T14:33:40.508Z,8.19
2022-12-23T14:36:24.979Z,8.18
2022-12-23T14:39:37.863Z,8.19
2022-12-23T14:42:35.883Z,8.20
2022-12-23T14:45:36.606Z,8.21
2022-12-23T14:48:38.484Z,8.23
2022-12-23T14:51:32.455Z,8.23
2022-12-23T14:54:16.818Z,8.21
2022-12-23T14:57:06.651Z,8.21
2022-12-23T14:59:58.979Z,8.23
2022-12-23T15:02:43.840Z,8.23
2022-12-23T15:05:26.820Z,8.24
2022-12-23T15:08:31.506Z,8.24
2022-12-23T15:11:21.940Z,8.24
2022-12-23T15:14:10.806Z,8.23
2022-12-23T15:16:53.679Z,8.24
2022-12-23T15:19:46.516Z,8.23
2022-12-23T15:22:32.772Z,8.18
2022-12-23T15:25:28.029Z,8.16
2022-12-23T15:28:18.098Z,8.16
2022-12-23T15:31:02.023Z,8.16
2022-12-23T15:34:05.417Z,8.16
2022-12-23T15:36:54.563Z,8.14
2022-12-23T15:39:41.956Z,8.15
2022-12-23T15:42:26.257Z,8.14
2022-12-23T15:45:32.332Z,8.11
2022-12-23T15:48:26.071Z,8.09
2022-12-23T15:51:14.749Z,8.03
2022-12-23T15:54:02.744Z,8.05
2022-12-23T15:56:49.453Z,8.01
2022-12-23T15:59:35.248Z,8.03
2022-12-23T16:02:59.247Z,8.05
2022-12-23T16:05:30.583Z,7.99
2022-12-23T16:08:29.021Z,8.02
2022-12-23T16:11:19.086Z,7.95
2022-12-23T16:14:03.918Z,7.92
2022-12-23T16:16:46.756Z,7.89
2022-12-23T16:19:44.208Z,7.94
2022-12-23T16:22:30.187Z,7.85
2022-12-23T16:25:19.465Z,7.88
2022-12-23T16:28:07.248Z,7.89
2022-12-23T16:30:52.670Z,7.79
2022-12-23T16:33:38.397Z,7.77
2022-12-23T16:36:32.872Z,7.83
2022-12-23T16:39:20.272Z,7.87
2022-12-23T16:42:03.264Z,7.89
2022-12-23T16:44:47.455Z,7.89
2022-12-23T16:47:31.725Z,7.90
2022-12-23T16:50:16.054Z,7.75
2022-12-23T16:52:58.863Z,7.67
2022-12-23T16:55:48.268Z,7.75
2022-12-23T16:58:34.100Z,7.79
2022-12-23T17:01:23.509Z,7.77
2022-12-23T17:04:07.201Z,7.81
2022-12-23T17:06:50.057Z,7.83
2022-12-23T17:09:32.868Z,7.84
2022-12-23T17:12:15.770Z,7.86
2022-12-23T17:14:58.548Z,7.89
2022-12-23T17:17:42.711Z,7.89
2022-12-23T17:20:25.764Z,7.97
2022-12-23T17:23:19.772Z,8.05
2022-12-23T17:26:02.631Z,8.04
2022-12-23T17:28:45.713Z,8.03
2022-12-23T17:31:28.572Z,8.08
2022-12-23T17:34:17.027Z,8.13
2022-12-23T17:37:01.260Z,8.15
2022-12-23T17:39:45.151Z,8.16
2022-12-23T17:42:27.974Z,8.15
2022-12-23T17:45:24.749Z,8.17
2022-12-23T17:48:08.006Z,8.20
2022-12-23T17:50:52.321Z,8.22
2022-12-23T17:53:35.134Z,8.24
2022-12-23T17:56:19.708Z,8.28
2022-12-23T17:59:02.539Z,8.30
2022-12-23T18:01:45.622Z,8.31
2022-12-23T18:04:28.472Z,8.33
2022-12-23T18:07:13.545Z,8.35
2022-12-23T18:09:56.350Z,8.37
2022-12-23T18:12:40.806Z,8.39
2022-12-23T18:15:25.999Z,8.31
2022-12-23T18:18:16.738Z,8.27
2022-12-23T18:21:03.367Z,8.28
2022-12-23T18:23:47.632Z,8.23
2022-12-23T18:26:30.467Z,8.24
2022-12-23T18:29:13.376Z,8.22
2022-12-23T18:31:56.208Z,8.17
2022-12-23T18:34:38.979Z,8.23
2022-12-23T18:37:22.283Z,8.23
2022-12-23T18:40:07.301Z,8.28
2022-12-23T18:42:50.536Z,8.31
2022-12-23T18:45:35.855Z,8.33
2022-12-23T18:48:18.805Z,8.35
2022-12-23T18:51:01.610Z,8.36
2022-12-23T18:53:44.857Z,8.42
2022-12-23T18:56:28.995Z,8.44
2022-12-23T18:59:18.578Z,8.42
2022-12-23T19:02:03.166Z,8.46
2022-12-23T19:04:46.035Z,8.52
2022-12-23T19:07:28.980Z,8.61
2022-12-23T19:10:17.092Z,8.61
2022-12-23T19:13:01.663Z,8.72
2022-12-23T19:15:45.580Z,8.78
2022-12-23T19:18:28.413Z,8.80
2022-12-23T19:21:11.228Z,8.89
2022-12-23T19:23:54.032Z,8.88
2022-12-23T19:26:36.821Z,8.85
2022-12-23T19:29:20.973Z,8.92
2022-12-23T19:32:03.841Z,8.96
2022-12-23T19:34:47.570Z,9.00
2022-12-23T19:37:32.212Z,9.01
2022-12-23T19:40:15.267Z,9.01
2022-12-23T19:42:58.085Z,8.92
2022-12-23T19:45:42.203Z,8.97
2022-12-23T19:48:25.013Z,8.89
2022-12-23T19:51:10.067Z,8.92
2022-12-23T19:53:53.076Z,9.00
2022-12-23T19:56:35.848Z,9.00
2022-12-23T19:59:18.725Z,9.06
2022-12-23T20:02:02.914Z,9.06
2022-12-23T20:04:45.816Z,9.10
2022-12-23T20:07:28.579Z,9.15
2022-12-23T20:10:12.049Z,9.12
2022-12-23T20:12:54.822Z,9.23
2022-12-23T20:15:37.760Z,9.16
2022-12-23T20:18:21.935Z,9.22
2022-12-23T20:21:05.313Z,9.26
2022-12-23T20:23:48.847Z,9.32
2022-12-23T20:26:31.816Z,9.25
2022-12-23T20:29:14.925Z,9.32
2022-12-23T20:31:57.745Z,9.27
2022-12-23T20:34:41.872Z,9.32
2022-12-23T20:37:24.664Z,9.38
2022-12-23T20:40:09.406Z,9.36
2022-12-23T20:42:52.011Z,9.39
2022-12-23T20:45:34.938Z,9.42
2022-12-23T20:48:18.162Z,9.42
2022-12-23T20:51:07.168Z,9.44
2022-12-23T20:53:50.360Z,9.42
2022-12-23T20:56:33.188Z,9.49
2022-12-23T20:59:15.971Z,9.48
2022-12-23T21:01:59.415Z,9.52
2022-12-23T21:04:42.624Z,9.50
2022-12-23T21:07:26.801Z,9.58
2022-12-23T21:10:10.716Z,9.60
2022-12-23T21:12:53.463Z,9.61
2022-12-23T21:15:36.268Z,9.59
2022-12-23T21:18:19.386Z,9.58
2022-12-23T21:21:03.767Z,9.61
2022-12-23T21:23:47.993Z,9.62
2022-12-23T21:26:31.733Z,9.61
2022-12-23T21:29:15.795Z,9.58
2022-12-23T21:31:59.740Z,9.59
2022-12-23T21:34:42.638Z,9.58
2022-12-23T21:37:25.429Z,9.56
2022-12-23T21:40:12.184Z,9.60
2022-12-23T21:42:54.979Z,9.61
2022-12-23T21:45:37.814Z,9.62
2022-12-23T21:48:20.628Z,9.62
2022-12-23T21:51:04.767Z,9.62
2022-12-23T21:53:50.525Z,9.62
2022-12-23T21:56:34.847Z,9.61
2022-12-23T21:59:17.667Z,9.62
2022-12-23T22:02:00.547Z,9.60
2022-12-23T22:04:43.495Z,9.60
2022-12-23T22:07:26.333Z,9.60
2022-12-23T22:10:10.419Z,9.58
2022-12-23T22:12:54.734Z,9.60
2022-12-23T22:15:41.803Z,9.60
2022-12-23T22:18:24.608Z,9.57
2022-12-23T22:21:09.062Z,9.57
2022-12-23T22:23:53.272Z,9.55
2022-12-23T22:26:36.738Z,9.49
2022-12-23T22:29:20.884Z,9.51
2022-12-23T22:32:03.858Z,9.50
2022-12-23T22:34:46.733Z,9.45
2022-12-23T22:37:29.607Z,9.44
2022-12-23T22:40:12.847Z,9.46
2022-12-23T22:42:55.769Z,9.43
2022-12-23T22:45:39.952Z,9.42
2022-12-23T22:48:22.956Z,9.41
2022-12-23T22:51:09.373Z,9.35
2022-12-23T22:53:52.220Z,9.33
2022-12-23T22:56:35.203Z,9.30
2022-12-23T22:59:22.629Z,9.31
2022-12-23T23:02:06.895Z,9.27
2022-12-23T23:04:49.987Z,9.25
2022-12-23T23:07:32.817Z,9.24
2022-12-23T23:10:16.219Z,9.25
2022-12-23T23:12:59.019Z,9.23
2022-12-23T23:15:41.836Z,9.18
2022-12-23T23:18:27.163Z,9.16
2022-12-23T23:21:11.922Z,9.13
2022-12-23T23:23:54.520Z,9.10
2022-12-23T23:26:37.327Z,9.08
2022-12-23T23:29:20.129Z,9.07
2022-12-23T23:32:03.166Z,9.08
2022-12-23T23:34:47.352Z,9.06
2022-12-23T23:37:30.164Z,9.03
2022-12-23T23:40:13.208Z,9.02
2022-12-23T23:42:56.061Z,9.02
2022-12-23T23:45:38.889Z,8.99
2022-12-23T23:48:22.215Z,8.98
2022-12-23T23:51:07.560Z,8.97
2022-12-23T23:53:50.459Z,8.86
2022-12-23T23:56:38.179Z,8.83
2022-12-23T23:59:22.043Z,8.88
